Time;durP1;ratioP1;P1;durP2;ratioP2;P2;SDS_P1;SDS_P2;PMS_P1;PMS_P2;Temp;Humidity;BMP_temperature;BMP_pressure;BME280_temperature;BME280_humidity;BME280_pressure;Samples;Min_cycle;Max_cycle;Signal;HPM_P1;HPM_P2
2021/03/29 00:00:29;;;;;;;4.50;2.00;;;11.00;99.90;;;;;;5073767;28;20210;-81
2021/03/29 00:02:57;;;;;;;3.90;1.47;;;11.10;99.90;;;;;;5073385;28;20206;-79
2021/03/29 00:05:26;;;;;;;2.90;1.93;;;11.00;99.90;;;;;;5073628;28;20214;-69
2021/03/29 00:07:55;;;;;;;3.37;1.90;;;11.00;99.90;;;;;;5073242;28;21046;-82
2021/03/29 00:10:23;;;;;;;3.60;1.53;;;11.00;99.90;;;;;;5074017;28;20202;-69
2021/03/29 00:12:51;;;;;;;3.93;1.60;;;10.90;99.90;;;;;;5074467;28;20217;-70
2021/03/29 00:15:22;;;;;;;4.83;1.87;;;11.00;99.90;;;;;;5074715;28;20214;-69
2021/03/29 00:17:49;;;;;;;2.30;1.70;;;11.00;99.90;;;;;;5073279;28;20217;-70
2021/03/29 00:20:20;;;;;;;2.37;0.93;;;11.00;99.90;;;;;;5073267;28;20553;-73
2021/03/29 00:22:47;;;;;;;4.33;2.07;;;11.10;99.90;;;;;;5073254;28;20272;-79
2021/03/29 00:25:15;;;;;;;7.23;2.37;;;11.00;99.90;;;;;;5073542;28;20202;-71
2021/03/29 00:27:42;;;;;;;5.17;2.10;;;10.90;99.90;;;;;;5072633;28;20287;-81
2021/03/29 00:30:13;;;;;;;3.40;1.70;;;11.00;99.90;;;;;;5073446;28;20616;-86
2021/03/29 00:32:40;;;;;;;4.57;2.07;;;10.90;99.90;;;;;;5072806;28;20206;-88
2021/03/29 00:35:08;;;;;;;3.23;1.47;;;10.80;99.90;;;;;;5073501;28;20609;-73
2021/03/29 00:37:37;;;;;;;6.73;1.90;;;10.80;99.90;;;;;;5073083;28;20221;-70
2021/03/29 00:40:05;;;;;;;3.33;1.63;;;10.70;99.90;;;;;;5073196;28;20209;-70
2021/03/29 00:42:33;;;;;;;2.10;1.40;;;10.60;99.90;;;;;;5073967;28;20206;-69
2021/03/29 00:45:00;;;;;;;4.77;2.43;;;10.60;99.90;;;;;;5073670;28;20207;-69
2021/03/29 00:47:27;;;;;;;7.07;1.67;;;10.70;99.90;;;;;;5074165;28;20233;-69
2021/03/29 00:49:54;;;;;;;5.13;1.60;;;10.50;99.90;;;;;;5072953;28;20209;-72
2021/03/29 00:52:21;;;;;;;3.67;1.53;;;10.50;99.90;;;;;;5073200;28;20585;-71
2021/03/29 00:54:48;;;;;;;7.93;2.00;;;10.30;99.90;;;;;;5072813;28;20206;-78
2021/03/29 00:57:17;;;;;;;4.23;2.30;;;10.20;99.90;;;;;;5073388;28;20627;-71
2021/03/29 00:59:44;;;;;;;3.30;2.00;;;10.10;99.90;;;;;;5072814;28;20214;-68
2021/03/29 01:02:11;;;;;;;3.20;2.13;;;10.20;99.90;;;;;;5072387;28;20206;-83
2021/03/29 01:04:38;;;;;;;3.60;1.53;;;10.20;99.90;;;;;;5073009;28;20209;-72
2021/03/29 01:07:05;;;;;;;4.80;1.77;;;10.10;99.90;;;;;;5072628;28;20237;-72
2021/03/29 01:09:33;;;;;;;4.50;1.80;;;10.10;99.90;;;;;;5072777;28;20231;-71
2021/03/29 01:12:03;;;;;;;5.73;2.30;;;9.90;99.90;;;;;;5072340;28;20240;-80
2021/03/29 01:14:32;;;;;;;2.10;1.40;;;9.90;99.90;;;;;;5073051;28;20207;-79
2021/03/29 01:17:04;;;;;;;3.87;1.50;;;9.80;99.90;;;;;;5072636;28;20206;-81
2021/03/29 01:19:48;;;;;;;1.93;1.37;;;9.80;99.90;;;;;;5072708;28;20210;-79
2021/03/29 01:22:16;;;;;;;3.30;1.80;;;9.90;99.90;;;;;;5072683;28;20202;-85
2021/03/29 01:24:51;;;;;;;3.97;2.00;;;9.70;99.90;;;;;;5072448;28;20822;-87
2021/03/29 01:27:25;;;;;;;3.70;1.73;;;9.80;99.90;;;;;;5072844;28;20642;-84
2021/03/29 01:29:53;;;;;;;2.13;1.10;;;9.90;99.90;;;;;;5072527;28;20213;-85
2021/03/29 01:32:21;;;;;;;3.83;1.50;;;9.90;99.90;;;;;;5072694;28;20229;-85
2021/03/29 01:34:48;;;;;;;3.63;2.20;;;9.90;99.90;;;;;;5071862;28;20621;-70
2021/03/29 01:37:16;;;;;;;6.60;1.60;;;9.90;99.90;;;;;;5072123;28;20206;-84
2021/03/29 01:39:44;;;;;;;10.80;2.57;;;9.70;99.90;;;;;;5071209;28;20221;-70
2021/03/29 01:42:12;;;;;;;2.67;1.27;;;9.80;99.90;;;;;;5072173;28;20210;-77
2021/03/29 01:44:41;;;;;;;7.30;2.20;;;9.80;99.90;;;;;;5071567;28;20693;-82
2021/03/29 01:47:09;;;;;;;4.57;1.93;;;9.80;99.90;;;;;;5071739;28;20230;-72
2021/03/29 01:49:36;;;;;;;3.30;1.37;;;9.80;99.90;;;;;;5071159;28;20211;-72
2021/03/29 01:52:04;;;;;;;4.90;1.53;;;9.70;99.90;;;;;;5071754;28;20627;-71
2021/03/29 01:54:34;;;;;;;8.30;1.77;;;9.70;99.90;;;;;;5071952;28;20210;-71
2021/03/29 01:57:03;;;;;;;5.77;1.87;;;9.70;99.90;;;;;;5071715;28;20584;-78
2021/03/29 01:59:30;;;;;;;5.97;2.60;;;9.60;99.90;;;;;;5071833;28;20601;-77
2021/03/29 02:01:57;;;;;;;2.00;1.73;;;9.60;99.90;;;;;;5071052;28;20260;-82
2021/03/29 02:04:27;;;;;;;2.43;1.70;;;9.60;99.90;;;;;;5071372;28;20206;-82
2021/03/29 02:06:54;;;;;;;5.70;1.90;;;9.60;99.90;;;;;;5071141;28;20240;-71
2021/03/29 02:09:21;;;;;;;7.03;1.43;;;9.60;99.90;;;;;;5071456;28;20251;-73
2021/03/29 02:11:48;;;;;;;4.17;3.10;;;9.50;99.90;;;;;;5071234;28;20210;-72
2021/03/29 02:14:16;;;;;;;3.80;1.20;;;9.50;99.90;;;;;;5071440;28;20670;-73
2021/03/29 02:16:44;;;;;;;3.77;1.30;;;9.50;99.90;;;;;;5070899;28;20268;-83
2021/03/29 02:19:12;;;;;;;4.93;1.70;;;9.50;99.90;;;;;;5071821;28;20206;-84
2021/03/29 02:21:41;;;;;;;4.93;1.47;;;9.50;99.90;;;;;;5071307;28;20207;-86
2021/03/29 02:24:11;;;;;;;3.50;2.10;;;9.50;99.90;;;;;;5071440;28;20217;-88
2021/03/29 02:26:42;;;;;;;8.23;2.40;;;9.50;99.90;;;;;;5070947;28;20232;-83
2021/03/29 02:29:09;;;;;;;3.23;1.60;;;9.40;99.90;;;;;;5072729;28;20198;-88
2021/03/29 02:31:36;;;;;;;4.60;1.17;;;9.50;99.90;;;;;;5072381;28;20206;-90
2021/03/29 02:34:06;;;;;;;3.07;2.00;;;9.50;99.90;;;;;;5071190;28;20202;-70
2021/03/29 02:36:33;;;;;;;4.27;1.57;;;9.40;99.90;;;;;;5070996;28;20260;-73
2021/03/29 02:39:00;;;;;;;3.30;1.13;;;9.40;99.90;;;;;;5071472;28;20214;-83
2021/03/29 02:41:29;;;;;;;3.63;1.53;;;9.40;99.90;;;;;;5071269;28;20211;-83
2021/03/29 02:43:57;;;;;;;2.70;1.40;;;9.40;99.90;;;;;;5071261;28;20198;-84
2021/03/29 02:46:26;;;;;;;3.27;1.73;;;9.40;99.90;;;;;;5071030;28;20260;-81
2021/03/29 02:48:54;;;;;;;2.67;1.40;;;9.40;99.90;;;;;;5070278;28;20724;-82
2021/03/29 02:51:21;;;;;;;3.00;1.40;;;9.40;99.90;;;;;;5070645;28;20210;-79
2021/03/29 02:53:51;;;;;;;5.90;2.37;;;9.50;99.90;;;;;;5070494;28;20214;-85
2021/03/29 02:56:22;;;;;;;6.37;2.17;;;9.50;99.90;;;;;;5070727;28;20209;-84
2021/03/29 02:58:53;;;;;;;4.93;2.20;;;9.50;99.90;;;;;;5070253;28;20206;-70
2021/03/29 03:01:23;;;;;;;3.30;1.50;;;9.40;99.90;;;;;;5070550;28;20701;-79
2021/03/29 03:03:53;;;;;;;2.50;1.83;;;9.30;99.90;;;;;;5070064;28;20209;-70
2021/03/29 03:06:22;;;;;;;6.87;2.77;;;9.30;99.90;;;;;;5070495;28;20646;-68
2021/03/29 03:08:50;;;;;;;3.53;2.00;;;9.30;99.90;;;;;;5069841;28;20206;-80
2021/03/29 03:11:17;;;;;;;3.70;2.43;;;9.30;99.90;;;;;;5070671;28;20735;-83
2021/03/29 03:13:44;;;;;;;6.63;2.23;;;9.20;99.90;;;;;;5069978;28;20209;-79
2021/03/29 03:16:11;;;;;;;3.90;1.77;;;9.30;99.90;;;;;;5070328;28;20206;-69
2021/03/29 03:18:38;;;;;;;5.40;1.90;;;9.20;99.90;;;;;;5069956;28;20232;-81
2021/03/29 03:21:05;;;;;;;4.17;2.03;;;9.20;99.90;;;;;;5070066;28;20289;-83
2021/03/29 03:23:32;;;;;;;3.43;1.87;;;9.10;99.90;;;;;;5070878;28;20222;-82
2021/03/29 03:26:00;;;;;;;4.50;1.90;;;9.20;99.90;;;;;;5074504;28;20209;-82
2021/03/29 03:28:28;;;;;;;4.30;2.80;;;9.10;99.90;;;;;;5074841;28;20241;-83
2021/03/29 03:30:56;;;;;;;2.83;2.10;;;9.00;99.90;;;;;;5074459;28;20202;-82
2021/03/29 03:33:24;;;;;;;3.73;1.73;;;9.00;99.90;;;;;;5075073;28;20554;-83
2021/03/29 03:35:52;;;;;;;3.47;1.40;;;9.00;99.90;;;;;;5074310;28;20212;-87
2021/03/29 03:38:22;;;;;;;2.60;1.77;;;9.00;99.90;;;;;;5074968;28;20743;-85
2021/03/29 03:40:53;;;;;;;5.67;1.50;;;9.00;99.90;;;;;;5075471;28;20202;-87
2021/03/29 03:43:25;;;;;;;4.17;1.47;;;9.00;99.90;;;;;;5074689;28;20690;-86
2021/03/29 03:45:58;;;;;;;9.30;2.07;;;8.90;99.90;;;;;;5074620;28;20202;-73
2021/03/29 03:48:25;;;;;;;3.10;1.57;;;8.90;99.90;;;;;;5074538;28;20333;-87
2021/03/29 03:50:53;;;;;;;4.17;1.63;;;8.90;99.90;;;;;;5074463;28;20207;-85
2021/03/29 03:53:21;;;;;;;4.90;2.77;;;9.00;99.90;;;;;;5074632;28;20248;-87
2021/03/29 03:55:52;;;;;;;8.57;2.10;;;8.90;99.90;;;;;;5074201;28;20202;-80
2021/03/29 03:58:20;;;;;;;4.20;2.17;;;8.90;99.90;;;;;;5074508;28;20209;-87
2021/03/29 04:00:47;;;;;;;2.53;1.40;;;9.00;99.90;;;;;;5074325;28;20669;-87
2021/03/29 04:03:13;;;;;;;5.03;2.17;;;9.00;99.90;;;;;;5074798;28;20206;-89
2021/03/29 04:05:40;;;;;;;2.77;1.37;;;8.90;99.90;;;;;;5073999;28;20588;-77
2021/03/29 04:08:07;;;;;;;4.13;1.43;;;9.00;99.90;;;;;;5074015;28;20724;-71
2021/03/29 04:10:42;;;;;;;4.83;1.83;;;8.90;99.90;;;;;;5072729;28;20204;-71
2021/03/29 04:13:11;;;;;;;3.40;1.80;;;9.00;99.90;;;;;;5074294;28;20205;-89
2021/03/29 04:15:39;;;;;;;4.83;2.00;;;9.00;99.90;;;;;;5072893;28;20205;-67
2021/03/29 04:18:06;;;;;;;4.87;2.03;;;8.90;99.90;;;;;;5073436;28;20210;-82
2021/03/29 04:20:33;;;;;;;5.83;1.87;;;8.80;99.90;;;;;;5073225;28;20247;-68
2021/03/29 04:23:00;;;;;;;4.90;1.73;;;8.80;99.90;;;;;;5074346;28;20198;-88
2021/03/29 04:25:27;;;;;;;7.13;2.07;;;9.00;99.90;;;;;;5073971;28;20222;-85
2021/03/29 04:27:53;;;;;;;4.80;2.33;;;8.90;99.90;;;;;;5073369;28;20229;-75
2021/03/29 04:30:21;;;;;;;5.83;2.20;;;9.00;99.90;;;;;;5077427;28;20210;-88
2021/03/29 04:32:50;;;;;;;13.13;1.87;;;9.00;99.90;;;;;;5073615;28;20210;-88
2021/03/29 04:35:17;;;;;;;4.30;1.50;;;8.90;99.90;;;;;;5073994;28;20210;-75
2021/03/29 04:37:43;;;;;;;4.83;1.90;;;9.10;99.90;;;;;;5072712;28;20576;-89
2021/03/29 04:40:11;;;;;;;3.80;2.00;;;9.10;99.90;;;;;;5073937;28;20202;-87
2021/03/29 04:42:38;;;;;;;7.80;2.67;;;8.90;99.90;;;;;;5072554;28;20206;-79
2021/03/29 04:45:07;;;;;;;2.93;1.37;;;9.00;99.90;;;;;;5072854;28;20596;-83
2021/03/29 04:47:34;;;;;;;5.57;2.30;;;9.00;99.90;;;;;;5073122;28;20283;-75
2021/03/29 04:50:03;;;;;;;3.03;1.90;;;9.00;99.90;;;;;;5073741;28;20674;-81
2021/03/29 04:52:30;;;;;;;4.43;1.67;;;8.90;99.90;;;;;;5073714;28;20217;-86
2021/03/29 04:54:57;;;;;;;3.10;1.80;;;9.00;99.90;;;;;;5072624;28;20214;-69
2021/03/29 04:57:23;;;;;;;3.67;1.60;;;9.10;99.90;;;;;;5073365;28;20206;-85
2021/03/29 04:59:50;;;;;;;7.00;2.00;;;8.90;99.90;;;;;;5072910;28;20213;-79
2021/03/29 05:02:16;;;;;;;5.73;1.67;;;9.00;99.90;;;;;;5072675;28;20601;-88
2021/03/29 05:04:43;;;;;;;6.27;2.70;;;9.00;99.90;;;;;;5072427;28;20591;-79
2021/03/29 05:07:13;;;;;;;4.40;2.00;;;9.10;99.90;;;;;;5072602;28;20222;-87
2021/03/29 05:09:40;;;;;;;8.00;2.33;;;9.20;99.90;;;;;;5072175;28;20206;-80
2021/03/29 05:12:08;;;;;;;2.30;2.10;;;9.10;99.90;;;;;;5072761;28;20202;-84
2021/03/29 05:14:36;;;;;;;6.83;2.30;;;9.10;99.90;;;;;;5072491;28;20202;-87
2021/03/29 05:17:03;;;;;;;4.07;1.43;;;9.20;99.90;;;;;;5072902;28;20299;-73
2021/03/29 05:19:29;;;;;;;3.63;2.10;;;9.20;99.90;;;;;;5072975;28;20206;-86
2021/03/29 05:21:56;;;;;;;6.43;2.40;;;9.20;99.90;;;;;;5072030;28;20575;-77
2021/03/29 05:24:24;;;;;;;5.23;2.50;;;9.30;99.90;;;;;;5072405;28;20220;-68
2021/03/29 05:26:50;;;;;;;7.80;2.50;;;9.30;99.90;;;;;;5071645;28;20230;-69
2021/03/29 05:29:17;;;;;;;3.87;2.10;;;9.40;99.90;;;;;;5071809;28;20248;-68
2021/03/29 05:31:44;;;;;;;6.17;2.00;;;9.40;99.90;;;;;;5071238;28;20202;-73
2021/03/29 05:34:12;;;;;;;7.90;2.50;;;9.30;99.90;;;;;;5072208;28;20206;-82
2021/03/29 05:36:39;;;;;;;4.60;2.33;;;9.40;99.90;;;;;;5071352;28;20230;-78
2021/03/29 05:39:06;;;;;;;3.67;2.50;;;9.40;99.90;;;;;;5071919;28;20213;-70
2021/03/29 05:41:34;;;;;;;3.70;2.00;;;9.30;99.90;;;;;;5071174;28;20585;-69
2021/03/29 05:44:01;;;;;;;8.37;2.67;;;9.40;99.90;;;;;;5072021;28;20267;-69
2021/03/29 05:46:28;;;;;;;7.23;2.83;;;9.40;99.90;;;;;;5071449;28;20256;-77
2021/03/29 05:48:55;;;;;;;4.47;2.07;;;9.40;99.90;;;;;;5070855;28;20230;-70
2021/03/29 05:51:21;;;;;;;4.83;1.90;;;9.50;99.90;;;;;;5071416;28;20693;-73
2021/03/29 05:53:48;;;;;;;5.73;2.67;;;9.60;99.90;;;;;;5071701;28;20248;-72
2021/03/29 05:56:15;;;;;;;3.93;2.53;;;9.40;99.90;;;;;;5071635;28;20206;-73
2021/03/29 05:58:54;;;;;;;5.93;3.43;;;9.50;99.90;;;;;;5070868;28;20218;-75
2021/03/29 06:01:22;;;;;;;4.10;2.03;;;9.60;99.90;;;;;;5071081;28;20301;-68
2021/03/29 06:03:51;;;;;;;5.77;2.37;;;9.70;99.90;;;;;;5070627;28;20279;-68
2021/03/29 06:06:19;;;;;;;6.10;2.63;;;9.80;99.90;;;;;;5071412;28;20275;-71
2021/03/29 06:08:47;;;;;;;4.07;2.57;;;9.80;99.90;;;;;;5070556;28;20238;-71
2021/03/29 06:11:27;;;;;;;6.10;2.20;;;9.80;99.90;;;;;;5070996;28;20198;-74
2021/03/29 06:14:11;;;;;;;6.10;2.60;;;9.90;99.90;;;;;;5070682;28;20209;-70
2021/03/29 06:16:59;;;;;;;3.53;2.70;;;10.10;99.90;;;;;;5071006;28;20210;-70
2021/03/29 06:19:44;;;;;;;4.53;2.37;;;10.20;99.90;;;;;;5066103;28;20202;-68
2021/03/29 06:22:17;;;;;;;3.93;2.20;;;10.20;99.90;;;;;;5070884;28;20248;-80
2021/03/29 06:24:58;;;;;;;5.10;2.60;;;10.30;99.90;;;;;;5070915;28;20658;-73
2021/03/29 06:27:27;;;;;;;5.50;2.87;;;10.40;99.90;;;;;;5070863;28;20241;-79
2021/03/29 06:30:18;;;;;;;9.33;3.10;;;10.40;99.90;;;;;;5070398;28;20239;-80
2021/03/29 06:33:03;;;;;;;12.63;2.87;;;10.50;99.90;;;;;;5068991;28;20202;-75
2021/03/29 06:35:33;;;;;;;4.87;2.50;;;10.50;99.90;;;;;;5069856;28;20202;-72
2021/03/29 06:38:09;;;;;;;5.60;2.80;;;10.70;99.90;;;;;;5071036;28;20618;-80
2021/03/29 06:40:36;;;;;;;3.20;1.87;;;10.80;99.90;;;;;;5070380;28;20217;-82
2021/03/29 06:43:16;;;;;;;6.47;2.73;;;10.80;99.90;;;;;;5070356;28;20210;-76
2021/03/29 06:45:44;;;;;;;3.63;2.03;;;10.90;99.90;;;;;;5070270;28;20313;-82
2021/03/29 06:48:21;;;;;;;7.40;2.20;;;11.00;99.90;;;;;;5070540;28;20275;-83
2021/03/29 06:51:01;;;;;;;8.37;2.80;;;11.10;99.90;;;;;;5070831;28;20213;-80
2021/03/29 06:53:28;;;;;;;10.03;3.93;;;11.10;99.90;;;;;;5071120;28;20214;-80
2021/03/29 06:55:57;;;;;;;12.20;4.40;;;11.20;99.90;;;;;;5070613;28;20206;-79
2021/03/29 06:58:27;;;;;;;10.97;2.90;;;11.30;99.90;;;;;;5069941;28;20256;-78
2021/03/29 07:00:56;;;;;;;12.13;4.10;;;11.40;99.90;;;;;;5069877;28;20685;-85
2021/03/29 07:03:23;;;;;;;6.93;2.03;;;11.50;99.90;;;;;;5070659;28;20274;-76
2021/03/29 07:05:51;;;;;;;6.63;1.67;;;11.60;99.90;;;;;;5070097;28;20624;-78
2021/03/29 07:08:17;;;;;;;2.77;1.97;;;11.70;99.90;;;;;;5068788;28;20334;-75
2021/03/29 07:10:44;;;;;;;3.60;1.90;;;11.80;99.90;;;;;;5059992;28;20684;-75
2021/03/29 07:13:11;;;;;;;8.47;2.60;;;12.00;99.90;;;;;;5070107;28;20213;-75
2021/03/29 07:15:38;;;;;;;6.30;2.50;;;12.30;99.90;;;;;;5069827;28;20203;-76
2021/03/29 07:18:06;;;;;;;10.87;2.17;;;12.20;99.90;;;;;;5070188;28;20213;-75
2021/03/29 07:20:33;;;;;;;6.63;2.43;;;12.20;99.90;;;;;;5069468;28;20202;-72
2021/03/29 07:22:59;;;;;;;4.33;2.17;;;12.20;99.90;;;;;;5070504;28;20261;-76
2021/03/29 07:25:31;;;;;;;6.00;2.23;;;12.30;99.90;;;;;;5069948;28;20213;-74
2021/03/29 07:27:59;;;;;;;5.37;2.13;;;12.40;99.90;;;;;;5066853;28;20409;-74
2021/03/29 07:30:47;;;;;;;6.00;2.50;;;12.50;99.90;;;;;;5070100;28;20618;-76
2021/03/29 07:33:15;;;;;;;3.10;2.10;;;12.70;99.90;;;;;;5061555;28;20205;-80
2021/03/29 07:35:47;;;;;;;3.83;2.40;;;12.70;99.90;;;;;;5069810;28;20217;-75
2021/03/29 07:38:14;;;;;;;5.57;1.80;;;12.90;99.90;;;;;;5069867;28;20198;-77
2021/03/29 07:40:47;;;;;;;5.40;2.73;;;12.70;99.90;;;;;;5069499;28;20221;-76
2021/03/29 07:43:16;;;;;;;5.23;2.33;;;12.80;99.90;;;;;;5073329;28;20223;-84
2021/03/29 07:45:49;;;;;;;5.27;2.30;;;12.90;99.90;;;;;;5068174;28;20206;-77
2021/03/29 07:48:32;;;;;;;5.63;2.10;;;12.90;99.90;;;;;;5058484;28;20233;-78
2021/03/29 07:50:59;;;;;;;4.33;2.07;;;12.90;99.90;;;;;;5068952;28;20206;-77
2021/03/29 07:53:48;;;;;;;5.53;2.10;;;13.00;99.90;;;;;;5069803;28;20214;-79
2021/03/29 07:56:41;;;;;;;4.60;2.27;;;13.00;99.90;;;;;;5069589;28;20203;-83
2021/03/29 07:59:08;;;;;;;4.57;2.07;;;13.10;99.90;;;;;;5062406;28;20202;-83
2021/03/29 08:02:00;;;;;;;2.80;2.03;;;13.30;99.90;;;;;;5061718;28;20210;-75
2021/03/29 08:05:03;;;;;;;6.73;2.00;;;13.40;99.90;;;;;;5059365;28;20214;-77
2021/03/29 08:07:37;;;;;;;4.80;2.73;;;13.70;99.90;;;;;;5069416;28;20233;-81
2021/03/29 08:10:05;;;;;;;2.40;1.67;;;13.80;99.90;;;;;;5061950;28;20198;-75
2021/03/29 08:12:32;;;;;;;3.17;2.13;;;13.80;99.90;;;;;;5068904;28;20211;-74
2021/03/29 08:14:59;;;;;;;7.20;2.20;;;13.70;99.90;;;;;;5072769;28;20682;-84
2021/03/29 08:17:45;;;;;;;5.03;2.47;;;13.80;99.90;;;;;;5073374;28;20345;-75
2021/03/29 08:20:19;;;;;;;3.23;2.10;;;14.00;99.90;;;;;;5065992;28;20289;-73
2021/03/29 08:22:45;;;;;;;8.43;2.17;;;14.00;99.90;;;;;;5063455;28;20206;-75
2021/03/29 08:25:29;;;;;;;5.80;2.40;;;14.10;99.90;;;;;;5070791;28;20260;-80
2021/03/29 08:27:56;;;;;;;3.67;2.17;;;14.10;99.90;;;;;;5071292;28;20312;-74
2021/03/29 08:30:24;;;;;;;3.65;1.70;;;14.30;99.90;;;;;;5073288;28;20263;-79
2021/03/29 08:32:50;;;;;;;3.90;1.80;;;14.50;99.90;;;;;;5069938;28;20210;-76
2021/03/29 08:35:20;;;;;;;4.65;2.05;;;14.60;99.90;;;;;;5059822;28;20214;-76
2021/03/29 08:37:49;;;;;;;4.38;1.55;;;14.80;99.90;;;;;;5068689;28;20206;-76
2021/03/29 08:40:20;;;;;;;8.40;2.08;;;14.80;99.90;;;;;;5069870;28;20751;-78
2021/03/29 08:42:51;;;;;;;4.45;1.80;;;15.10;99.90;;;;;;5072621;28;20659;-77
2021/03/29 08:45:19;;;;;;;5.32;1.80;;;15.30;99.90;;;;;;5072292;28;20209;-79
2021/03/29 08:47:48;;;;;;;4.07;1.73;;;15.20;99.90;;;;;;5072033;28;20233;-77
2021/03/29 08:50:17;;;;;;;10.85;2.17;;;15.20;99.90;;;;;;5072657;28;20640;-78
2021/03/29 08:52:46;;;;;;;4.63;1.75;;;15.30;99.90;;;;;;5068967;28;20213;-84
2021/03/29 08:55:17;;;;;;;6.78;2.10;;;15.40;99.90;;;;;;5071165;28;20496;-83
2021/03/29 08:57:45;;;;;;;2.00;1.20;;;15.90;99.90;;;;;;5073063;28;20228;-90
2021/03/29 09:00:14;;;;;;;4.13;2.00;;;16.60;99.90;;;;;;5070862;28;20225;-73
2021/03/29 09:02:41;;;;;;;7.63;2.38;;;17.10;99.90;;;;;;5070831;28;20214;-71
2021/03/29 09:05:09;;;;;;;3.40;1.85;;;17.30;99.90;;;;;;5070130;28;20206;-76
2021/03/29 09:07:40;;;;;;;6.57;2.05;;;17.80;99.90;;;;;;5070865;28;20658;-78
2021/03/29 09:10:22;;;;;;;4.25;1.73;;;17.20;99.90;;;;;;5067354;28;20206;-79
2021/03/29 09:12:54;;;;;;;3.10;1.42;;;17.20;99.90;;;;;;5071775;28;20202;-80
2021/03/29 09:15:21;;;;;;;5.13;2.30;;;18.10;99.90;;;;;;5070265;28;20207;-80
2021/03/29 09:17:55;;;;;;;8.40;2.30;;;17.40;99.90;;;;;;5070983;28;20202;-77
2021/03/29 09:20:23;;;;;;;3.53;1.65;;;17.30;99.90;;;;;;5070898;28;20680;-80
2021/03/29 09:22:51;;;;;;;9.77;2.65;;;18.80;99.90;;;;;;5064563;28;20203;-79
2021/03/29 09:25:25;;;;;;;5.63;2.35;;;19.90;99.90;;;;;;5071118;28;20202;-80
2021/03/29 09:28:19;;;;;;;3.55;1.58;;;20.00;99.90;;;;;;5071430;28;20236;-83
2021/03/29 09:30:48;;;;;;;4.05;2.35;;;20.60;99.90;;;;;;5067849;28;20203;-79
2021/03/29 09:33:16;;;;;;;6.90;1.98;;;20.30;99.90;;;;;;5071974;28;20665;-83
2021/03/29 09:35:44;;;;;;;8.27;2.25;;;21.20;99.90;;;;;;5070493;28;20566;-79
2021/03/29 09:38:12;;;;;;;5.38;2.20;;;20.50;99.90;;;;;;5071356;28;20579;-76
2021/03/29 09:40:38;;;;;;;8.98;1.90;;;20.40;99.90;;;;;;5071396;28;20242;-84
2021/03/29 09:43:06;;;;;;;3.45;2.13;;;21.30;99.90;;;;;;5071217;28;20203;-78
2021/03/29 09:45:34;;;;;;;7.90;1.92;;;22.10;99.90;;;;;;5072162;28;20213;-79
2021/03/29 09:48:03;;;;;;;3.00;2.03;;;22.00;99.90;;;;;;5071360;28;20237;-75
2021/03/29 09:50:32;;;;;;;5.25;1.95;;;22.80;99.90;;;;;;5065579;28;20213;-77
2021/03/29 09:53:12;;;;;;;3.38;1.88;;;21.30;99.90;;;;;;5069457;28;20210;-75
2021/03/29 09:55:44;;;;;;;4.72;2.58;;;22.20;99.90;;;;;;5069591;28;20209;-77
2021/03/29 09:58:25;;;;;;;3.85;2.05;;;23.20;99.90;;;;;;5070889;28;20233;-77
2021/03/29 10:00:53;;;;;;;9.57;2.47;;;20.70;99.90;;;;;;5069688;28;20665;-75
2021/03/29 10:03:23;;;;;;;1.95;1.60;;;21.50;99.90;;;;;;5071123;28;20206;-74
2021/03/29 10:05:50;;;;;;;5.03;1.88;;;21.30;99.90;;;;;;5069974;28;20202;-71
2021/03/29 10:08:31;;;;;;;4.70;1.77;;;23.80;99.90;;;;;;5065376;28;20237;-75
2021/03/29 10:10:59;;;;;;;4.97;1.65;;;21.40;99.90;;;;;;5065282;28;20208;-75
2021/03/29 10:13:32;;;;;;;4.88;1.73;;;21.50;99.90;;;;;;5071241;28;20206;-74
2021/03/29 10:16:16;;;;;;;3.53;2.03;;;21.10;99.90;;;;;;5062826;28;20251;-74
2021/03/29 10:18:42;;;;;;;4.60;1.98;;;22.40;99.90;;;;;;5070349;28;20773;-75
2021/03/29 10:21:09;;;;;;;3.90;2.05;;;22.60;99.90;;;;;;5061861;28;20198;-75
2021/03/29 10:23:41;;;;;;;6.50;2.47;;;22.60;99.90;;;;;;5069914;28;20885;-77
2021/03/29 10:26:16;;;;;;;3.58;2.58;;;22.40;99.90;;;;;;5070455;28;20209;-77
2021/03/29 10:28:53;;;;;;;21.75;3.28;;;21.90;99.90;;;;;;5063633;28;20237;-77
2021/03/29 10:31:19;;;;;;;4.32;2.00;;;21.80;99.90;;;;;;5070582;28;20210;-76
2021/03/29 10:33:46;;;;;;;4.05;1.50;;;22.20;99.90;;;;;;5070192;28;20627;-79
2021/03/29 10:36:14;;;;;;;3.45;1.45;;;20.20;99.90;;;;;;5064215;28;20210;-77
2021/03/29 10:38:42;;;;;;;3.97;1.50;;;18.40;99.90;;;;;;5070015;28;20217;-75
2021/03/29 10:41:09;;;;;;;5.57;1.90;;;18.20;99.90;;;;;;5069529;28;20222;-74
2021/03/29 10:43:35;;;;;;;3.17;1.90;;;18.10;99.90;;;;;;5063716;28;20213;-77
2021/03/29 10:46:02;;;;;;;7.72;2.05;;;18.10;99.90;;;;;;5059546;28;20215;-76
2021/03/29 10:48:28;;;;;;;4.88;2.00;;;18.10;99.90;;;;;;5065124;28;20238;-75
2021/03/29 10:50:55;;;;;;;6.47;1.90;;;18.10;99.90;;;;;;5070105;28;20251;-75
2021/03/29 10:53:21;;;;;;;4.70;2.03;;;18.30;99.90;;;;;;5066001;28;20206;-77
2021/03/29 10:55:49;;;;;;;4.70;2.05;;;18.40;99.90;;;;;;5070200;28;20206;-73
2021/03/29 10:58:16;;;;;;;4.70;1.70;;;18.40;99.90;;;;;;5070254;28;20202;-75
2021/03/29 11:00:42;;;;;;;4.82;1.60;;;18.20;99.90;;;;;;5070024;28;20222;-74
2021/03/29 11:03:09;;;;;;;8.38;2.30;;;18.40;99.90;;;;;;5069842;28;20281;-75
2021/03/29 11:05:35;;;;;;;5.90;1.83;;;18.10;99.90;;;;;;5069617;28;20202;-76
2021/03/29 11:08:02;;;;;;;4.93;1.55;;;18.40;99.90;;;;;;5063035;28;20253;-74
2021/03/29 11:10:28;;;;;;;3.53;1.98;;;18.60;99.90;;;;;;5070251;28;20217;-75
2021/03/29 11:12:56;;;;;;;6.18;2.25;;;18.40;99.90;;;;;;5069353;28;20202;-75
2021/03/29 11:15:22;;;;;;;4.60;2.15;;;18.50;99.90;;;;;;5070014;28;20268;-74
2021/03/29 11:17:49;;;;;;;4.65;1.88;;;18.30;99.90;;;;;;5069866;28;20218;-74
2021/03/29 11:20:15;;;;;;;6.43;1.90;;;18.30;99.90;;;;;;5069867;28;20214;-74
2021/03/29 11:22:43;;;;;;;8.48;1.38;;;18.50;99.90;;;;;;5069676;28;20210;-76
2021/03/29 11:25:11;;;;;;;3.33;1.95;;;18.70;99.90;;;;;;5069421;28;20209;-75
2021/03/29 11:27:37;;;;;;;4.30;2.03;;;18.50;99.90;;;;;;5069472;28;20715;-75
2021/03/29 11:30:09;;;;;;;6.35;1.77;;;18.50;99.90;;;;;;5069433;28;20202;-74
2021/03/29 11:32:36;;;;;;;4.25;2.13;;;18.60;99.90;;;;;;5068802;28;20224;-76
2021/03/29 11:35:03;;;;;;;4.07;2.20;;;18.50;99.90;;;;;;5068938;28;20247;-78
2021/03/29 11:37:30;;;;;;;6.22;2.20;;;18.30;99.90;;;;;;5062487;28;20209;-79
2021/03/29 11:39:57;;;;;;;4.97;1.75;;;18.20;99.90;;;;;;5069536;28;20214;-79
2021/03/29 11:42:23;;;;;;;4.60;2.42;;;18.50;99.90;;;;;;5062187;28;20206;-81
2021/03/29 11:44:50;;;;;;;4.38;2.97;;;18.80;99.90;;;;;;5065796;28;20255;-75
2021/03/29 11:47:18;;;;;;;3.63;1.83;;;19.20;99.90;;;;;;5068066;28;20210;-78
2021/03/29 11:49:44;;;;;;;4.10;2.25;;;18.80;99.90;;;;;;5068906;28;20236;-76
2021/03/29 11:52:11;;;;;;;4.00;2.03;;;18.90;99.90;;;;;;5073039;28;20221;-72
2021/03/29 11:54:37;;;;;;;4.93;2.58;;;19.10;99.90;;;;;;5070543;28;20202;-74
2021/03/29 11:57:04;;;;;;;4.63;1.67;;;18.80;99.90;;;;;;5072670;28;20202;-77
2021/03/29 11:59:31;;;;;;;6.68;2.38;;;19.10;99.90;;;;;;5072377;28;20586;-83
2021/03/29 12:01:58;;;;;;;6.25;2.30;;;18.90;99.90;;;;;;5071374;28;20209;-71
2021/03/29 12:04:30;;;;;;;5.18;2.17;;;18.70;99.90;;;;;;5073783;28;20206;-75
2021/03/29 12:07:01;;;;;;;2.75;1.75;;;19.00;99.90;;;;;;5072867;28;20202;-78
2021/03/29 12:09:32;;;;;;;5.15;1.80;;;18.90;99.90;;;;;;5073587;28;20222;-77
2021/03/29 12:12:04;;;;;;;4.35;1.98;;;18.90;99.90;;;;;;5065345;28;20198;-72
2021/03/29 12:14:33;;;;;;;6.15;2.53;;;18.90;99.90;;;;;;5073668;28;20259;-80
2021/03/29 12:17:00;;;;;;;3.50;1.90;;;19.30;99.90;;;;;;5073300;28;20198;-73
2021/03/29 12:19:29;;;;;;;3.97;2.22;;;19.50;99.90;;;;;;5073467;28;20217;-70
2021/03/29 12:21:58;;;;;;;9.50;2.30;;;19.30;99.90;;;;;;5072885;28;20203;-76
2021/03/29 12:24:28;;;;;;;7.95;2.78;;;19.20;99.90;;;;;;5070762;28;20558;-73
2021/03/29 12:26:54;;;;;;;3.75;1.70;;;19.20;99.90;;;;;;5072391;28;20289;-79
2021/03/29 12:29:34;;;;;;;5.65;2.03;;;19.30;99.90;;;;;;5072835;28;20230;-76
2021/03/29 12:32:02;;;;;;;3.20;1.58;;;19.30;99.90;;;;;;5070198;28;20214;-79
2021/03/29 12:34:30;;;;;;;8.40;2.55;;;19.10;99.90;;;;;;5073516;28;20267;-76
2021/03/29 12:36:57;;;;;;;5.90;2.75;;;19.00;99.90;;;;;;5073120;28;20208;-77
2021/03/29 12:39:28;;;;;;;5.35;2.00;;;19.10;99.90;;;;;;5072787;28;20275;-76
2021/03/29 12:41:57;;;;;;;9.15;2.75;;;19.40;99.90;;;;;;5072620;28;20254;-85
2021/03/29 12:44:24;;;;;;;3.00;2.17;;;19.50;99.90;;;;;;5073504;28;20217;-83
2021/03/29 12:46:55;;;;;;;2.60;1.42;;;19.50;99.90;;;;;;5072302;28;20971;-81
2021/03/29 12:49:22;;;;;;;2.75;2.03;;;19.50;99.90;;;;;;5072874;28;20316;-83
2021/03/29 12:51:54;;;;;;;6.13;2.20;;;19.50;99.90;;;;;;5062592;28;20241;-79
2021/03/29 12:54:25;;;;;;;6.47;2.33;;;19.70;99.90;;;;;;5062614;28;20698;-80
2021/03/29 12:56:52;;;;;;;5.57;1.70;;;19.60;99.90;;;;;;5067822;28;20216;-80
2021/03/29 12:59:20;;;;;;;4.55;1.58;;;19.70;99.90;;;;;;5072288;28;20685;-82
2021/03/29 13:01:47;;;;;;;1.95;1.75;;;19.90;99.90;;;;;;5070688;28;20210;-79